M I D A S
Marine Information and Data Acquisition System
Tripno 1829 of the Zeeleeuw from 2009-12-18 07:37:33 to 2009-12-18 15:35:12
Back to CruiseResearch ActivitiesStationsMapUnderway DataData graphs

EquipmentUnitsComment
TimeDGPSUTC
LatitudeDGPSDM.mWGS84
LongitudeDGPSDM.mWGS84
HeadingGyrodeg 
SOGDGPSknotsSpeed over ground
COGDGPSdegCourse over ground
DepthEcho soundermeters200 kHz
Missing or incorrect values are displayed as -999
Navigation data collected by the RV Zeeleeuw from 2009-12-18 07:40:09 to 2009-12-18 15:38:23
Time Latitude Longitude Heading SOG COG Depth
2009-12-18 07:41:18 51°13.679 2°55.881 107.5 3.8 289 -999
2009-12-18 07:42:18 51°13.708 2°55.784 122.5 4.2 302 -999
2009-12-18 07:43:18 51°13.755 2°55.7 140.8 4.3 320 -999
2009-12-18 07:44:26 51°13.834 2°55.643 165.4 4.7 346 -999
2009-12-18 07:45:29 51°13.903 2°55.624 181.8 3.2 356 -999
2009-12-18 07:46:27 51°13.941 2°55.628 207.1 1.4 10 9.3
2009-12-18 07:47:26 51°13.946 2°55.616 251 1.3 270 9.1
2009-12-18 07:48:29 51°13.968 2°55.562 315.9 3.7 321 -999
2009-12-18 07:49:28 51°14.059 2°55.477 331.8 8.5 331 9.2
2009-12-18 07:50:29 51°14.197 2°55.356 330.3 9.6 328 -999
2009-12-18 07:51:27 51°14.304 2°55.181 309.1 10.1 307 9.9
2009-12-18 07:52:27 51°14.409 2°54.954 314.1 10.7 318 8.9
2009-12-18 07:53:26 51°14.566 2°54.852 353.9 10.4 346 8.8
2009-12-18 07:54:25 51°14.73 2°54.802 359.2 10.1 351 8.7
2009-12-18 07:55:25 51°14.9 2°54.766 0.5 10.1 355 7.6
2009-12-18 07:56:25 51°15.068 2°54.735 0.3 10.1 354 7.4
2009-12-18 07:57:25 51°15.233 2°54.674 350.3 10.4 345 7.4
2009-12-18 07:58:25 51°15.398 2°54.578 347.7 10.2 338 7.5
2009-12-18 07:59:25 51°15.558 2°54.489 352.3 10.2 344 8.8
2009-12-18 08:00:25 51°15.723 2°54.42 353.9 10.4 345 9
2009-12-18 08:01:25 51°15.891 2°54.355 353.6 10.5 347 10.1
2009-12-18 08:02:25 51°16.058 2°54.293 354.3 9.8 346 10.1
2009-12-18 08:03:25 51°16.179 2°54.241 357.7 4.9 342 10.1
2009-12-18 08:04:25 51°16.222 2°54.234 33.7 1.5 14 10.7
2009-12-18 08:05:25 51°16.226 2°54.247 74.1 0.4 177 10.2
2009-12-18 08:06:25 51°16.211 2°54.236 85.1 1.3 210 10.3
2009-12-18 08:07:25 51°16.192 2°54.207 86.9 1.7 233 10.1
2009-12-18 08:08:25 51°16.171 2°54.165 98.9 2 240 10.1
2009-12-18 08:09:25 51°16.151 2°54.112 126.6 2.1 239 10
2009-12-18 08:10:25 51°16.131 2°54.063 157.8 2.3 223 10.5
2009-12-18 08:11:25 51°16.084 2°54.009 209.3 4.6 226 10.2
2009-12-18 08:12:25 51°16.053 2°53.898 280.5 4.5 271 10.5
2009-12-18 08:13:25 51°16.093 2°53.793 341.3 5.9 323 10.5
2009-12-18 08:14:25 51°16.19 2°53.632 321.3 10.2 312 10.4
2009-12-18 08:15:25 51°16.322 2°53.456 335.4 10.3 323 10.8
2009-12-18 08:16:25 51°16.461 2°53.284 328.2 10.8 320 11.2
2009-12-18 08:17:25 51°16.599 2°53.103 328.5 10.8 320 11.3
2009-12-18 08:18:25 51°16.735 2°52.926 328.5 10.5 323 9.8
2009-12-18 08:19:25 51°16.869 2°52.754 328.2 10.2 320 8.2
2009-12-18 08:20:25 51°17.006 2°52.591 333.9 10 326 8.6
2009-12-18 08:21:25 51°17.14 2°52.446 334 9.6 326 8.5
2009-12-18 08:22:25 51°17.278 2°52.299 334.4 9.4 324 -999
2009-12-18 08:23:25 51°17.409 2°52.154 334.6 9.9 327 10.4
2009-12-18 08:24:25 51°17.549 2°52.006 333.8 10 327 9.5
2009-12-18 08:25:25 51°17.687 2°51.856 333.6 9.7 326 8.8
2009-12-18 08:26:25 51°17.826 2°51.706 334.8 10.3 328 9.5
2009-12-18 08:27:25 51°17.968 2°51.555 334.6 10.4 327 10.2
2009-12-18 08:28:25 51°18.108 2°51.402 334 10 325 11.1
2009-12-18 08:29:25 51°18.249 2°51.25 334.4 9.8 327 11.2
2009-12-18 08:30:25 51°18.357 2°51.12 335.8 7.5 323 13
2009-12-18 08:31:25 51°18.453 2°51.002 337.5 7.1 324 12.7
2009-12-18 08:32:25 51°18.51 2°50.981 41 1.7 41 13
2009-12-18 08:33:25 51°18.498 2°51.013 105.8 2 174 12.6
2009-12-18 08:34:25 51°18.463 2°50.991 127.4 2.6 213 13.4
2009-12-18 08:35:25 51°18.433 2°50.952 143.9 2.2 224 13.1
2009-12-18 08:36:25 51°18.406 2°50.907 157.2 2.3 228 13.3
2009-12-18 08:37:25 51°18.381 2°50.859 168.5 2.4 227 12.7
2009-12-18 08:38:25 51°18.341 2°50.81 191.5 4 215 12.8
2009-12-18 08:39:25 51°18.291 2°50.703 265.5 5.9 256 13.2
2009-12-18 08:40:25 51°18.307 2°50.483 285.3 10.5 282 12.8
2009-12-18 08:41:25 51°18.33 2°50.179 281.6 11.8 276 13.3
2009-12-18 08:42:25 51°18.34 2°49.862 276.9 12.2 271 13
2009-12-18 08:43:25 51°18.341 2°49.544 275.1 11.8 268 11.8
2009-12-18 08:44:25 51°18.347 2°49.231 277.1 11.7 273 11.1
2009-12-18 08:45:25 51°18.353 2°48.919 277.9 11.6 273 9.6
2009-12-18 08:46:36 51°18.374 2°48.553 284.4 11.8 274 9.9
2009-12-18 08:47:38 51°18.407 2°48.245 283.3 11.3 282 10.5
2009-12-18 08:48:38 51°18.439 2°47.939 284.3 12 276 13.1
2009-12-18 08:49:38 51°18.466 2°47.632 278.5 11.8 276 13.4
2009-12-18 08:50:38 51°18.453 2°47.312 267.9 12 267 16
2009-12-18 08:51:38 51°18.437 2°46.99 271.5 12.2 268 17.2
2009-12-18 08:52:38 51°18.437 2°46.668 278.8 11.9 276 17.7
2009-12-18 08:53:38 51°18.447 2°46.346 279.2 11.8 275 17.7
2009-12-18 08:54:38 51°18.456 2°46.022 280.1 12.3 271 19.7
2009-12-18 08:55:38 51°18.468 2°45.697 280.1 12.4 272 20.4
2009-12-18 08:56:38 51°18.48 2°45.372 281.4 12.1 277 18.8
2009-12-18 08:57:38 51°18.49 2°45.048 279 12 275 17.5
2009-12-18 08:58:38 51°18.506 2°44.729 278.7 11.8 281 15.6
2009-12-18 08:59:38 51°18.518 2°44.413 279.9 11.8 273 12.5
2009-12-18 09:00:38 51°18.538 2°44.101 281.4 11.7 281 11.6
2009-12-18 09:01:38 51°18.557 2°43.789 276.1 11.8 276 20.9
2009-12-18 09:02:38 51°18.567 2°43.473 277 12.4 269 23.2
2009-12-18 09:03:38 51°18.582 2°43.157 280.3 12.1 271 22.6
2009-12-18 09:04:38 51°18.593 2°42.837 279.3 12.3 273 22.7
2009-12-18 09:05:38 51°18.606 2°42.514 280.8 12.2 276 23.1
2009-12-18 09:06:38 51°18.618 2°42.192 281.5 12.1 276 23.4
2009-12-18 09:07:38 51°18.627 2°41.874 279.5 11.7 275 22.7
2009-12-18 09:08:38 51°18.636 2°41.554 280.2 12.4 269 19.8
2009-12-18 09:09:38 51°18.647 2°41.235 279.9 12 276 18.6
2009-12-18 09:10:38 51°18.657 2°40.913 279.3 12.2 270 17.1
2009-12-18 09:11:38 51°18.668 2°40.594 277 11.6 282 10.4
2009-12-18 09:12:38 51°18.641 2°40.285 241.8 11.8 238 21.7
2009-12-18 09:13:38 51°18.478 2°40.1 206.3 12.4 215 23.8
2009-12-18 09:14:38 51°18.309 2°39.905 215.4 12.2 223 24.7
2009-12-18 09:15:38 51°18.162 2°39.677 227.6 12.5 233 26.2
2009-12-18 09:16:38 51°18.032 2°39.423 230.9 12.4 230 25.9
2009-12-18 09:17:38 51°17.906 2°39.158 233.6 12.5 237 26.3
2009-12-18 09:18:38 51°17.775 2°38.892 230.9 12.6 237 26.3
2009-12-18 09:19:38 51°17.642 2°38.632 228.8 12.8 232 26.8
2009-12-18 09:20:38 51°17.508 2°38.373 227.4 12.7 236 26.5
2009-12-18 09:21:38 51°17.372 2°38.114 227.3 13.2 225 27.4
2009-12-18 09:22:38 51°17.238 2°37.855 229.9 12.9 223 -999
2009-12-18 09:23:38 51°17.08 2°37.63 213.5 12.8 220 26.8
2009-12-18 09:24:38 51°16.907 2°37.427 213.5 12.9 218 27.1
2009-12-18 09:25:38 51°16.737 2°37.231 211.5 11.6 215 26.1
2009-12-18 09:26:38 51°16.607 2°37.07 215.9 8.1 228 25.9
2009-12-18 09:27:38 51°16.524 2°36.982 171.3 4 201 26.1
2009-12-18 09:28:38 51°16.492 2°36.932 170.6 2.3 250 26.3
2009-12-18 09:29:38 51°16.471 2°36.872 178.7 2.7 239 26.6
2009-12-18 09:30:37 51°16.446 2°36.812 177.4 2.6 233 26.7
2009-12-18 09:31:38 51°16.419 2°36.752 168.4 2.8 235 26.7
2009-12-18 09:32:38 51°16.393 2°36.695 158.6 2.5 233 26.6
2009-12-18 09:33:38 51°16.367 2°36.637 155.8 2.8 236 27.8
2009-12-18 09:34:38 51°16.339 2°36.579 158.6 2.7 233 27.4
2009-12-18 09:35:38 51°16.313 2°36.518 159.3 2.7 235 27.5
2009-12-18 09:36:38 51°16.287 2°36.458 160.5 2.9 234 28.5
2009-12-18 09:37:38 51°16.241 2°36.406 172 4.8 206 28
2009-12-18 09:38:38 51°16.121 2°36.352 180.6 9.4 191 26.5
2009-12-18 09:39:38 51°15.94 2°36.304 179.2 12.4 190 26.6
2009-12-18 09:40:37 51°15.741 2°36.259 181.7 12.1 184 23.9
2009-12-18 09:41:38 51°15.54 2°36.221 177 12 184 20
2009-12-18 09:42:38 51°15.347 2°36.224 171.9 11.8 178 16.8
2009-12-18 09:43:38 51°15.156 2°36.249 166.2 11.1 177 15.5
2009-12-18 09:44:38 51°14.968 2°36.294 162.8 11.8 175 15.8
2009-12-18 09:45:38 51°14.787 2°36.349 162.4 11.4 170 14.1
2009-12-18 09:46:37 51°14.611 2°36.411 160.8 11.1 168 12.8
2009-12-18 09:47:38 51°14.44 2°36.505 148.4 10.9 160 10.6
2009-12-18 09:48:38 51°14.294 2°36.65 136.8 10.6 148 11.2
2009-12-18 09:49:38 51°14.154 2°36.815 135.2 10.5 144 13.2
2009-12-18 09:50:38 51°14.013 2°36.983 135.3 10.4 137 17.4
2009-12-18 09:51:38 51°13.872 2°37.149 133.8 10.8 141 20.5
2009-12-18 09:52:38 51°13.733 2°37.318 131.9 10.5 141 17.6
2009-12-18 09:53:37 51°13.596 2°37.486 132.5 10.7 136 9.5
2009-12-18 09:54:38 51°13.455 2°37.656 134.8 10.5 144 9.1
2009-12-18 09:55:37 51°13.319 2°37.827 134.3 10.9 141 11.7
2009-12-18 09:56:38 51°13.166 2°37.977 152.2 10.6 165 12.9
2009-12-18 09:57:38 51°12.977 2°37.976 177.9 11.2 189 12.8
2009-12-18 09:58:38 51°12.79 2°37.879 202.8 11.6 205 12.5
2009-12-18 09:59:38 51°12.616 2°37.727 207.5 11.7 213 12.2
2009-12-18 10:00:38 51°12.44 2°37.572 207.1 12 207 12
2009-12-18 10:01:38 51°12.267 2°37.415 204 12.3 209 11.6
2009-12-18 10:02:38 51°12.093 2°37.258 209.6 11.9 212 -999
2009-12-18 10:03:38 51°11.921 2°37.102 205.8 12.4 205 11.7
2009-12-18 10:04:38 51°11.747 2°36.947 204.3 11.3 207 11.5
2009-12-18 10:05:38 51°11.574 2°36.787 203.9 12.3 208 11.4
2009-12-18 10:06:38 51°11.401 2°36.631 203.2 11.7 210 11.6
2009-12-18 10:07:38 51°11.229 2°36.47 207.4 12 216 11.5
2009-12-18 10:08:38 51°11.054 2°36.317 206 12.1 212 11.9
2009-12-18 10:09:38 51°10.881 2°36.16 206.8 12.4 204 11.4
2009-12-18 10:10:38 51°10.711 2°36.005 205.7 11.6 208 10.9
2009-12-18 10:11:38 51°10.538 2°35.847 208.1 11.9 203 10.4
2009-12-18 10:12:38 51°10.364 2°35.69 209.1 11.7 206 11.2
2009-12-18 10:13:37 51°10.196 2°35.539 206.6 12.1 208 11.7
2009-12-18 10:14:38 51°10.019 2°35.399 194.6 10.7 194 12.9
2009-12-18 10:15:37 51°9.838 2°35.419 165.2 11.5 166 18.6
2009-12-18 10:16:38 51°9.676 2°35.535 137 10.4 149 18.7
2009-12-18 10:17:38 51°9.537 2°35.705 131.7 10.5 145 18.3
2009-12-18 10:18:38 51°9.472 2°35.933 96.8 9.2 93 16.3
2009-12-18 10:19:38 51°9.512 2°36.169 65.4 9.6 69 16.7
2009-12-18 10:20:37 51°9.576 2°36.398 63.7 9.6 67 16.7
2009-12-18 10:21:38 51°9.645 2°36.636 63.7 9.9 65 16.9
2009-12-18 10:22:38 51°9.712 2°36.872 64.5 9.7 67 16
2009-12-18 10:23:38 51°9.776 2°37.105 64.7 9.5 65 16.7
2009-12-18 10:24:38 51°9.841 2°37.34 63.9 9.7 70 17
2009-12-18 10:25:38 51°9.908 2°37.575 64.8 9.9 66 16.9
2009-12-18 10:26:37 51°9.974 2°37.809 64.6 9.7 67 17.5
2009-12-18 10:27:37 51°10.04 2°38.049 63.9 10 66 17
2009-12-18 10:28:38 51°10.109 2°38.291 63.2 9.5 66 16
2009-12-18 10:29:37 51°10.175 2°38.52 63.2 9.7 63 15.8
2009-12-18 10:30:38 51°10.243 2°38.76 64 10 64 16.2
2009-12-18 10:31:37 51°10.308 2°38.997 65.4 10 66 15.9
2009-12-18 10:32:38 51°10.375 2°39.243 64.8 10 69 16.4
2009-12-18 10:33:38 51°10.448 2°39.476 59.7 9.9 63 14.8
2009-12-18 10:34:38 51°10.529 2°39.703 57.9 9.9 57 15.2
2009-12-18 10:35:38 51°10.611 2°39.933 59.6 9.8 61 14.9
2009-12-18 10:36:38 51°10.693 2°40.162 58.9 10.1 61 14.9
2009-12-18 10:37:38 51°10.776 2°40.392 59.6 9.8 62 13.6
2009-12-18 10:38:37 51°10.854 2°40.621 60 10.1 61 14
2009-12-18 10:39:37 51°10.934 2°40.857 59.4 10.1 60 13.6
2009-12-18 10:40:37 51°11.016 2°41.092 59.9 10.1 64 13.2
2009-12-18 10:41:38 51°11.099 2°41.33 58.9 10.1 60 13.8
2009-12-18 10:42:38 51°11.202 2°41.539 48.9 10.1 51 12.9
2009-12-18 10:43:38 51°11.291 2°41.705 49.4 5.4 50 12
2009-12-18 10:44:38 51°11.305 2°41.794 97.3 2.9 120 12.8
2009-12-18 10:45:37 51°11.269 2°41.823 141.5 1.9 177 12.7
2009-12-18 10:46:38 51°11.25 2°41.804 150.9 1.3 222 12.6
2009-12-18 10:47:38 51°11.235 2°41.78 161.5 1.2 215 12.8
2009-12-18 10:48:38 51°11.219 2°41.76 160.3 1.3 215 12.8
2009-12-18 10:49:38 51°11.202 2°41.741 157.6 1.2 214 13
2009-12-18 10:50:38 51°11.18 2°41.729 143.8 1.8 177 12.9
2009-12-18 10:51:37 51°11.154 2°41.764 94.4 2.5 104 12.5
2009-12-18 10:52:37 51°11.177 2°41.88 64 7.1 68 13.4
2009-12-18 10:53:38 51°11.237 2°42.11 65.1 10.1 68 12.1
2009-12-18 10:54:38 51°11.304 2°42.361 65 10.2 66 12.7
2009-12-18 10:55:38 51°11.374 2°42.612 66.1 10.4 70 12.1
2009-12-18 10:56:38 51°11.42 2°42.878 74.8 10.5 81 12.6
2009-12-18 10:57:38 51°11.45 2°43.152 77.1 10.5 80 12.5
2009-12-18 10:58:37 51°11.473 2°43.425 80.7 10.7 84 12.9
2009-12-18 10:59:37 51°11.502 2°43.703 78.1 10.5 77 13
2009-12-18 11:00:38 51°11.532 2°43.986 76.6 10.6 80 13.7
2009-12-18 11:01:38 51°11.562 2°44.265 77.2 10.8 82 13.6
2009-12-18 11:02:37 51°11.596 2°44.536 77 10.6 75 13.3
2009-12-18 11:03:38 51°11.631 2°44.819 78.4 10.7 76 13.8
2009-12-18 11:04:38 51°11.664 2°45.097 79.4 10.6 80 14.5
2009-12-18 11:05:37 51°11.696 2°45.37 77 10.6 81 13.7
2009-12-18 11:06:37 51°11.728 2°45.648 76.5 10.7 82 13.8
2009-12-18 11:07:38 51°11.76 2°45.933 77.5 10.7 81 14.2
2009-12-18 11:08:38 51°11.795 2°46.213 77.4 10.7 80 14.4
2009-12-18 11:09:38 51°11.829 2°46.488 76.2 10.4 83 13.9
2009-12-18 11:10:37 51°11.863 2°46.755 77.4 10.4 80 13.6
2009-12-18 11:11:37 51°11.898 2°47.029 77.7 10.5 77 13
2009-12-18 11:12:38 51°11.943 2°47.301 65.9 10.4 72 13.5
2009-12-18 11:13:38 51°12.033 2°47.535 56.8 10.4 57 12.9
2009-12-18 11:14:37 51°12.126 2°47.767 57.7 10.6 60 13.8
2009-12-18 11:15:37 51°12.208 2°48.013 63.8 10.5 62 12.7
2009-12-18 11:16:37 51°12.28 2°48.263 64.4 10.4 63 13.2
2009-12-18 11:17:37 51°12.354 2°48.518 64.2 10.6 62 12.9
2009-12-18 11:18:37 51°12.439 2°48.766 58.9 10.7 60 13.5
2009-12-18 11:19:38 51°12.532 2°49.012 59.1 10.8 61 13.3
2009-12-18 11:20:38 51°12.624 2°49.252 57.7 10.7 59 12.9
2009-12-18 11:21:37 51°12.713 2°49.489 59.5 10.4 62 12.8
2009-12-18 11:22:38 51°12.804 2°49.733 59.1 10.7 58 12.5
2009-12-18 11:23:38 51°12.897 2°49.979 59.3 10.9 58 13.2
2009-12-18 11:24:38 51°12.987 2°50.227 61.8 10.9 61 12.6
2009-12-18 11:25:38 51°13.073 2°50.482 62.7 10.9 60 12.7
2009-12-18 11:26:38 51°13.157 2°50.74 62.1 11.1 63 12.5
2009-12-18 11:27:37 51°13.238 2°50.995 62.8 10.8 62 12.3
2009-12-18 11:28:37 51°13.319 2°51.253 62.2 11.1 64 12.5
2009-12-18 11:29:37 51°13.402 2°51.511 61.5 10.9 60 12.3
2009-12-18 11:30:38 51°13.498 2°51.761 57.3 10.7 52 11.3
2009-12-18 11:31:38 51°13.596 2°52 57 10.9 56 11.9
2009-12-18 11:32:38 51°13.696 2°52.244 55.9 11 56 12.3
2009-12-18 11:33:38 51°13.795 2°52.487 58 10.9 56 11.1
2009-12-18 11:34:37 51°13.891 2°52.729 57.2 11.1 57 12.4
2009-12-18 11:35:37 51°13.996 2°52.968 54.9 11 55 12.1
2009-12-18 11:36:37 51°14.104 2°53.203 55.3 11.1 54 11.6
2009-12-18 11:37:37 51°14.211 2°53.445 55.2 11.1 57 11.8
2009-12-18 11:38:37 51°14.316 2°53.686 55.3 11.1 56 11.6
2009-12-18 11:39:37 51°14.423 2°53.928 54.5 11.3 56 11.8
2009-12-18 11:40:38 51°14.531 2°54.178 55 11.3 55 12
2009-12-18 11:41:37 51°14.638 2°54.422 55.6 11.3 56 12.2
2009-12-18 11:42:37 51°14.751 2°54.664 52.5 11.4 53 11.6
2009-12-18 11:43:38 51°14.868 2°54.911 52.1 11.5 52 11.3
2009-12-18 11:44:38 51°14.985 2°55.15 52 11.5 55 10.6
2009-12-18 11:45:37 51°15.097 2°55.388 53.1 11.4 51 10.5
2009-12-18 11:46:38 51°15.211 2°55.638 52.5 11.4 55 10.3
2009-12-18 11:47:37 51°15.319 2°55.878 53.5 11.5 59 10.4
2009-12-18 11:48:37 51°15.432 2°56.115 51.2 11 53 9.4
2009-12-18 11:49:37 51°15.542 2°56.354 52.5 11.3 52 9.6
2009-12-18 11:50:38 51°15.656 2°56.6 52.6 11.4 54 9.6
2009-12-18 11:51:37 51°15.765 2°56.838 53.5 11.3 54 9.5
2009-12-18 11:52:38 51°15.879 2°57.083 51.5 11.3 53 9.7
2009-12-18 11:53:38 51°15.992 2°57.326 53 11.4 55 9.4
2009-12-18 11:54:38 51°16.104 2°57.574 53.1 11.6 55 9.8
2009-12-18 11:55:38 51°16.216 2°57.826 53.1 11.8 55 10.1
2009-12-18 11:56:38 51°16.332 2°58.077 52.3 11.7 54 9.7
2009-12-18 11:57:38 51°16.449 2°58.326 51.3 11.9 54 10.8
2009-12-18 11:58:38 51°16.566 2°58.578 52.6 11.8 55 10.9
2009-12-18 11:59:38 51°16.681 2°58.829 52.4 11.8 54 10.6
2009-12-18 12:00:38 51°16.797 2°59.078 51.5 11.7 57 10.9
2009-12-18 12:01:38 51°16.913 2°59.324 52.1 11.6 56 11.3
2009-12-18 12:02:38 51°17.026 2°59.571 53.1 11.8 52 11.6
2009-12-18 12:03:37 51°17.14 2°59.823 52.7 11.8 53 11
2009-12-18 12:04:38 51°17.258 3°0.082 52.5 11.9 52 11
2009-12-18 12:05:38 51°17.374 3°0.337 51.6 11.7 55 11.2
2009-12-18 12:06:37 51°17.486 3°0.587 52.6 11.9 57 11.6
2009-12-18 12:07:38 51°17.605 3°0.849 52.5 11.9 52 10.9
2009-12-18 12:08:37 51°17.72 3°1.102 50.8 11.9 53 11.4
2009-12-18 12:09:38 51°17.84 3°1.366 51.8 12.1 52 11.5
2009-12-18 12:10:37 51°17.954 3°1.62 52.1 12 55 11.9
2009-12-18 12:11:37 51°18.07 3°1.879 52.9 11.9 54 11.2
2009-12-18 12:12:37 51°18.189 3°2.136 51.9 12 52 11.4
2009-12-18 12:13:38 51°18.308 3°2.4 52.2 12.1 54 11
2009-12-18 12:14:38 51°18.428 3°2.661 52.5 12.3 54 11.6
2009-12-18 12:15:37 51°18.546 3°2.919 52.5 12.2 52 10.6
2009-12-18 12:16:38 51°18.669 3°3.187 52 12.2 55 10.7
2009-12-18 12:17:37 51°18.789 3°3.447 52.4 12.4 53 11.6
2009-12-18 12:18:38 51°18.912 3°3.714 50.4 12.4 55 11.3
2009-12-18 12:19:38 51°19.031 3°3.977 52.3 12.3 53 10.9
2009-12-18 12:20:38 51°19.153 3°4.243 52.6 12.4 53 10.2
2009-12-18 12:21:37 51°19.269 3°4.506 52.7 12.5 56 10.6
2009-12-18 12:22:38 51°19.391 3°4.78 52.9 12.4 56 10.1
2009-12-18 12:23:37 51°19.511 3°5.044 52.1 12.5 53 10.5
2009-12-18 12:24:37 51°19.638 3°5.299 42.9 12.3 43 9.9
2009-12-18 12:25:37 51°19.791 3°5.518 36.9 12.3 40 10.2
2009-12-18 12:26:37 51°19.946 3°5.731 38.3 12.1 41 10.9
2009-12-18 12:27:38 51°20.1 3°5.95 37.9 12.3 42 10.3
2009-12-18 12:28:38 51°20.254 3°6.168 39 12.3 42 10.1
2009-12-18 12:29:38 51°20.402 3°6.391 39.9 12.3 45 10.6
2009-12-18 12:30:38 51°20.551 3°6.611 39.1 12.3 42 10.8
2009-12-18 12:31:38 51°20.704 3°6.83 39.9 12.3 43 10.1
2009-12-18 12:32:37 51°20.853 3°7.046 38.6 12.4 42 10.3
2009-12-18 12:33:38 51°21.006 3°7.272 41.9 12.4 45 10
2009-12-18 12:34:37 51°21.137 3°7.518 48.7 12.7 53 11.3
2009-12-18 12:35:37 51°21.264 3°7.784 50.8 12.6 53 11.2
2009-12-18 12:36:38 51°21.396 3°8.055 49.7 12.8 51 11.4
2009-12-18 12:37:38 51°21.525 3°8.323 49.7 12.7 53 11.6
2009-12-18 12:38:38 51°21.656 3°8.594 50.1 12.8 53 12.4
2009-12-18 12:39:37 51°21.786 3°8.861 49.7 12.9 51 13.9
2009-12-18 12:40:38 51°21.92 3°9.138 48.8 13 52 14.1
2009-12-18 12:41:37 51°22.049 3°9.412 49.6 13.1 52 14.9
2009-12-18 12:42:38 51°22.182 3°9.699 53 13.3 57 16
2009-12-18 12:43:37 51°22.287 3°10.008 62.5 13.5 64 16.1
2009-12-18 12:44:37 51°22.373 3°10.342 68.5 13.6 72 20.6
2009-12-18 12:45:37 51°22.437 3°10.687 75.6 13.5 77 18.7
2009-12-18 12:46:37 51°22.484 3°11.037 79.5 13.3 83 17.7
2009-12-18 12:47:37 51°22.516 3°11.396 82.5 13.5 81 17.6
2009-12-18 12:48:37 51°22.538 3°11.757 82.6 13.6 86 17.5
2009-12-18 12:49:38 51°22.559 3°12.127 85.4 14 86 16.8
2009-12-18 12:50:37 51°22.574 3°12.486 87.7 13.9 83 16.2
2009-12-18 12:51:38 51°22.586 3°12.834 85.4 10.7 89 15.6
2009-12-18 12:53:14 51°22.593 3°13.171 86.9 5.7 93 15
2009-12-18 12:54:15 51°22.594 3°13.254 112.9 1.4 79 -999
2009-12-18 12:55:18 51°22.608 3°13.292 140.6 2 65 14.4
2009-12-18 12:56:15 51°22.617 3°13.342 156.7 2.2 79 14.2
2009-12-18 12:57:14 51°22.623 3°13.402 168.1 2.4 85 14.2
2009-12-18 12:58:14 51°22.625 3°13.464 176.7 2.3 88 14.2
2009-12-18 12:59:14 51°22.602 3°13.547 137.9 5.3 112 14.2
2009-12-18 13:00:14 51°22.603 3°13.71 54.4 6.5 66 13.8
2009-12-18 13:01:14 51°22.684 3°13.785 348.6 7.3 8 13.3
2009-12-18 13:02:14 51°22.836 3°13.776 339.4 10.3 354 12.9
2009-12-18 13:03:14 51°22.99 3°13.691 318 9.4 329 12.4
2009-12-18 13:04:14 51°23.128 3°13.565 318.5 9.7 333 13.6
2009-12-18 13:05:14 51°23.276 3°13.455 325.8 9.9 339 12.6
2009-12-18 13:06:14 51°23.432 3°13.355 325.4 10.3 339 13.3
2009-12-18 13:07:14 51°23.59 3°13.257 325.6 10.2 339 13.9
2009-12-18 13:08:14 51°23.747 3°13.159 325.5 10.4 338 14.4
2009-12-18 13:09:14 51°23.903 3°13.059 326.4 10.2 338 14.4
2009-12-18 13:10:14 51°24.061 3°12.962 326.8 10.2 339 16.1
2009-12-18 13:11:14 51°24.219 3°12.862 326.3 10.2 340 20.2
2009-12-18 13:12:14 51°24.375 3°12.759 324.3 10.1 335 20.7
2009-12-18 13:13:14 51°24.523 3°12.634 319.3 10 329 19.5
2009-12-18 13:14:14 51°24.66 3°12.483 316.5 10.1 326 18.3
2009-12-18 13:15:14 51°24.796 3°12.322 315.5 10.1 324 16.1
2009-12-18 13:16:14 51°24.931 3°12.156 315.4 9.9 321 14.7
2009-12-18 13:17:14 51°25.063 3°11.988 316.5 10.1 323 13.3
2009-12-18 13:18:14 51°25.196 3°11.816 316.6 10.2 321 12.9
2009-12-18 13:19:14 51°25.326 3°11.641 315.8 10.3 319 12.9
2009-12-18 13:20:14 51°25.458 3°11.467 316.7 10.3 320 12.4
2009-12-18 13:21:14 51°25.587 3°11.292 316.2 10.2 320 11.2
2009-12-18 13:22:14 51°25.717 3°11.117 316.2 10.2 320 10.4
2009-12-18 13:23:14 51°25.846 3°10.943 316.2 10.4 319 10.3
2009-12-18 13:24:14 51°25.963 3°10.747 301.5 10 305 10.8
2009-12-18 13:25:14 51°26.017 3°10.498 280.2 10 284 10.8
2009-12-18 13:26:14 51°26.047 3°10.235 281.7 10 289 10.8
2009-12-18 13:27:14 51°26.116 3°9.992 294.1 10.2 299 11.1
2009-12-18 13:28:14 51°26.202 3°9.757 297.8 10.1 300 12.1
2009-12-18 13:29:14 51°26.291 3°9.526 298.5 10.2 303 11.2
2009-12-18 13:30:14 51°26.377 3°9.291 296.8 10.2 299 11.8
2009-12-18 13:31:14 51°26.462 3°9.053 296.2 10.5 298 13.4
2009-12-18 13:32:14 51°26.537 3°8.807 290.2 10.3 289 12.7
2009-12-18 13:33:14 51°26.538 3°8.547 256.2 8.9 259 12.7
2009-12-18 13:34:14 51°26.49 3°8.388 241.1 5.2 238 13.1
2009-12-18 13:35:14 51°26.463 3°8.278 248 3.9 246 12.8
2009-12-18 13:36:14 51°26.417 3°8.263 176.5 2.2 143 12.6
2009-12-18 13:37:14 51°26.407 3°8.288 145.6 0.9 81 12.8
2009-12-18 13:38:14 51°26.408 3°8.305 140.3 0.4 90 13
2009-12-18 13:39:14 51°26.409 3°8.317 148.5 0.3 77 13.2
2009-12-18 13:40:14 51°26.41 3°8.328 156.2 0.5 61 13
2009-12-18 13:41:15 51°26.402 3°8.343 176.3 1.7 160 13.3
2009-12-18 13:42:14 51°26.346 3°8.316 209.8 5.7 206 12.8
2009-12-18 13:43:14 51°26.251 3°8.22 216.4 7.5 209 12.5
2009-12-18 13:44:14 51°26.14 3°8.089 219.9 8.5 225 11.7
2009-12-18 13:45:15 51°26.011 3°7.941 220.9 9.5 229 12
2009-12-18 13:46:14 51°25.887 3°7.793 221.2 9.2 222 12
2009-12-18 13:47:14 51°25.758 3°7.647 217.1 9.6 212 12.3
2009-12-18 13:48:15 51°25.628 3°7.498 217.9 9.3 222 12.4
2009-12-18 13:49:14 51°25.501 3°7.353 214.9 9.8 219 12.7
2009-12-18 13:50:15 51°25.374 3°7.198 220.1 9.6 218 12.1
2009-12-18 13:51:14 51°25.253 3°7.039 220.8 9.5 225 12.8
2009-12-18 13:52:14 51°25.125 3°6.885 217.9 9.6 214 12.7
2009-12-18 13:53:15 51°24.994 3°6.727 220.7 10 210 13.5
2009-12-18 13:54:14 51°24.868 3°6.578 220.9 9.3 217 13.8
2009-12-18 13:55:15 51°24.737 3°6.426 218.5 9.6 218 14.8
2009-12-18 13:56:14 51°24.617 3°6.267 228.8 9.4 221 15.5
2009-12-18 13:57:15 51°24.506 3°6.082 226.6 9.6 227 16.1
2009-12-18 13:58:14 51°24.399 3°5.898 230.2 9.7 226 15.8
2009-12-18 13:59:15 51°24.285 3°5.705 228.1 9.9 229 18.8
2009-12-18 14:00:14 51°24.151 3°5.563 205.7 10.4 202 22.8
2009-12-18 14:01:14 51°23.985 3°5.495 192.9 10.4 186 23.1
2009-12-18 14:02:15 51°23.807 3°5.504 178.9 11 175 17.1
2009-12-18 14:03:14 51°23.635 3°5.52 183.9 10.5 180 16.4
2009-12-18 14:04:14 51°23.474 3°5.473 212.8 9.4 205 15
2009-12-18 14:05:14 51°23.381 3°5.282 246.7 9.5 249 15.5
2009-12-18 14:06:14 51°23.328 3°5.042 248.9 9.7 249 15
2009-12-18 14:07:14 51°23.265 3°4.802 246.8 9.8 253 14.9
2009-12-18 14:08:14 51°23.193 3°4.57 242.6 9.9 246 15
2009-12-18 14:09:14 51°23.122 3°4.338 245.6 9.6 248 14.7
2009-12-18 14:10:14 51°23.048 3°4.106 243.1 10 241 15.4
2009-12-18 14:11:14 51°22.977 3°3.87 244.5 9.8 246 13.7
2009-12-18 14:12:14 51°22.911 3°3.632 245.4 9.5 244 14.4
2009-12-18 14:13:14 51°22.842 3°3.402 243.6 9.7 237 14.9
2009-12-18 14:14:14 51°22.761 3°3.18 236.7 9.6 243 12.9
2009-12-18 14:15:15 51°22.676 3°2.963 236.8 9.1 237 13.4
2009-12-18 14:16:14 51°22.587 3°2.758 236.3 9.3 236 14.2
2009-12-18 14:17:15 51°22.492 3°2.55 235.1 9.5 233 14
2009-12-18 14:18:14 51°22.402 3°2.343 236 9.7 242 14.3
2009-12-18 14:19:15 51°22.309 3°2.129 235.3 9.6 239 13.8
2009-12-18 14:20:14 51°22.217 3°1.924 232.2 9.8 236 14.5
2009-12-18 14:21:14 51°22.123 3°1.712 232.8 10 230 14.1
2009-12-18 14:22:15 51°22.032 3°1.494 235.3 9.6 241 14.2
2009-12-18 14:23:14 51°21.945 3°1.286 236.4 9.6 240 14
2009-12-18 14:24:15 51°21.85 3°1.071 233.5 9.9 235 14.4
2009-12-18 14:25:14 51°21.758 3°0.864 234.2 9.8 230 14.4
2009-12-18 14:26:15 51°21.666 3°0.647 232.3 9.9 235 14.3
2009-12-18 14:27:14 51°21.58 3°0.438 236.4 9.4 228 13.9
2009-12-18 14:28:14 51°21.488 3°0.232 235.2 9.4 232 13.8
2009-12-18 14:29:14 51°21.4 3°0.022 237.4 9.1 240 13.7
2009-12-18 14:30:14 51°21.309 2°59.814 232.8 9.8 228 14.4
2009-12-18 14:31:15 51°21.223 2°59.599 232.8 9.6 238 14.6
2009-12-18 14:32:14 51°21.134 2°59.393 234.8 9.9 225 14.6
2009-12-18 14:33:15 51°21.046 2°59.181 233 9.7 235 14.3
2009-12-18 14:34:14 51°20.96 2°58.974 234.5 9.6 234 14.3
2009-12-18 14:35:15 51°20.872 2°58.758 235 9.5 240 13.7
2009-12-18 14:36:14 51°20.784 2°58.551 233.2 9.7 236 14.3
2009-12-18 14:37:14 51°20.698 2°58.339 233.5 9.7 237 14.5
2009-12-18 14:38:14 51°20.614 2°58.127 236.4 9.4 251 14.3
2009-12-18 14:39:14 51°20.533 2°57.913 237.1 9.6 233 14.3
2009-12-18 14:40:14 51°20.454 2°57.695 238.3 9.8 245 14.3
2009-12-18 14:41:14 51°20.375 2°57.473 237.4 9.6 249 14.4
2009-12-18 14:42:15 51°20.29 2°57.248 237.4 9.7 243 14.6
2009-12-18 14:43:14 51°20.209 2°57.031 239.9 9.4 243 14.3
2009-12-18 14:44:14 51°20.122 2°56.814 237.6 9.5 244 14.2
2009-12-18 14:45:14 51°20.036 2°56.596 235.6 9.8 246 14.6
2009-12-18 14:46:14 51°19.947 2°56.383 233.8 9.7 232 14.9
2009-12-18 14:47:14 51°19.86 2°56.165 234.9 9.8 239 14.8
2009-12-18 14:48:14 51°19.766 2°55.955 229.2 9.8 229 14.7
2009-12-18 14:49:14 51°19.667 2°55.754 227.7 9.5 231 14.6
2009-12-18 14:50:14 51°19.558 2°55.563 224.1 9.8 227 14.1
2009-12-18 14:51:14 51°19.444 2°55.379 222.5 9.8 227 13.9
2009-12-18 14:52:14 51°19.322 2°55.209 219.2 9.6 215 14.3
2009-12-18 14:53:14 51°19.194 2°55.05 217.8 9.4 218 14.1
2009-12-18 14:54:14 51°19.064 2°54.889 217.9 9.8 213 13.6
2009-12-18 14:55:14 51°18.937 2°54.728 216.5 9.7 218 13.7
2009-12-18 14:56:14 51°18.809 2°54.564 219.8 9.5 220 13.6
2009-12-18 14:57:14 51°18.679 2°54.403 217 9.9 223 13.8
2009-12-18 14:58:15 51°18.549 2°54.238 217.2 9.7 223 13.2
2009-12-18 14:59:14 51°18.419 2°54.088 212.1 9.9 220 13.5
2009-12-18 15:00:14 51°18.281 2°53.946 214.5 9.4 215 13
2009-12-18 15:01:14 51°18.141 2°53.814 209.5 9.7 207 12.6
2009-12-18 15:02:14 51°18 2°53.68 207.7 9.8 208 12.5
2009-12-18 15:03:14 51°17.854 2°53.561 206.7 9.8 201 12.4
2009-12-18 15:04:14 51°17.7 2°53.463 199 10.4 199 12.3
2009-12-18 15:05:14 51°17.54 2°53.376 197.3 10.3 200 12.2
2009-12-18 15:06:14 51°17.381 2°53.306 195.4 9.5 191 11.7
2009-12-18 15:07:14 51°17.214 2°53.265 185.9 10.5 186 11.4
2009-12-18 15:08:14 51°17.043 2°53.29 173.2 10.4 175 10.7
2009-12-18 15:09:14 51°16.878 2°53.361 166.3 10.3 157 12.6
2009-12-18 15:10:14 51°16.709 2°53.45 166 10.3 161 13.9
2009-12-18 15:11:14 51°16.541 2°53.537 166.3 10.9 161 14.5
2009-12-18 15:12:14 51°16.37 2°53.622 164.7 10.9 160 14.5
2009-12-18 15:13:14 51°16.198 2°53.696 168.2 10.9 166 14
2009-12-18 15:14:14 51°16.024 2°53.769 168.1 10.4 165 13.6
2009-12-18 15:15:14 51°15.85 2°53.848 167.7 11.4 166 13.6
2009-12-18 15:16:14 51°15.676 2°53.926 169.2 10.8 162 13.3
2009-12-18 15:17:14 51°15.504 2°54 168.2 10.4 163 12.3
2009-12-18 15:18:15 51°15.33 2°54.056 175.2 10.7 169 13.2
2009-12-18 15:19:14 51°15.159 2°54.089 177 10.8 175 11.1
2009-12-18 15:20:15 51°14.984 2°54.132 172.2 10 163 11.1
2009-12-18 15:21:14 51°14.825 2°54.231 154.4 10.6 153 12.2
2009-12-18 15:22:14 51°14.695 2°54.432 137.7 11.2 134 12.8
2009-12-18 15:23:14 51°14.57 2°54.65 136 11.2 133 12.4
2009-12-18 15:24:14 51°14.447 2°54.87 132.9 10.6 130 12.4
2009-12-18 15:25:14 51°14.334 2°55.097 123.3 10.6 123 12.7
2009-12-18 15:26:14 51°14.229 2°55.308 132.9 9.8 134 12.7
2009-12-18 15:27:14 51°14.102 2°55.438 150.5 8.1 153 12.7
2009-12-18 15:28:14 51°13.982 2°55.524 153.5 8.1 157 12.8
2009-12-18 15:29:14 51°13.855 2°55.607 154.5 8.3 156 13.1
2009-12-18 15:30:14 51°13.756 2°55.693 139.9 5.5 140 13.6
2009-12-18 15:31:14 51°13.707 2°55.794 123.4 4.7 124 14.4
2009-12-18 15:32:14 51°13.676 2°55.892 109.4 3.4 111 11.5
2009-12-18 15:33:11 51°13.664 2°55.949 113 1.3 107 9.3
2009-12-18 15:35:25 51°13.664 2°55.95 126.7 -999 -999 9.1
2009-12-18 15:36:28 51°13.662 2°55.961 127.2 -999 62 -999
2009-12-18 15:37:28 51°13.662 2°55.959 127.2 -999 54 -999